Flight Track Log - Related Links

Times and Time Zones

All times are in EDT time to prevent confusion due to time zone crossing. See the N516QS flight status page for this flight to view local times or setup timezone preferences in your user account.

Time Position Orientation Groundspeed Altitude Reporting Facility
EDT Latitude Longitude Course Direction KTS MPH feet Rate Location/Type
Mon 07:08:59 AM 41.1000 -73.8333 289° West 228 262 3,200  Level New York TRACON
Mon 07:10:51 AM 41.1425 -73.9975 289° West 253 291 6,800 1,884 Climbing New York Center
Mon 07:11:51 AM 41.1906 -74.0714 311° West 258 297 8,600 1,983 Climbing New York Center
Mon 07:12:52 AM 41.2275 -74.1558 300° West 269 310 10,800 1,800 Climbing New York Center
Mon 07:13:51 AM 41.2022 -74.2403 289° West 245 282 12,200 1,109 Climbing New York Center
Mon 07:14:51 AM 41.2094 -74.3481 275° West 274 315 13,000 900 Climbing New York Center
Mon 07:15:51 AM 41.2183 -74.4672 276° West 308 354 14,000 1,289 Climbing New York Center
Mon 07:16:52 AM 41.2372 -74.5894 282° West 341 392 15,600 1,488 Climbing New York Center
Mon 07:17:52 AM 41.2961 -74.6978 306° West 347 399 17,000 1,350 Climbing New York Center
Mon 07:18:52 AM 41.3556 -74.7953 309° West 364 419 18,300 1,488 Climbing New York Center
Mon 07:19:53 AM 41.4306 -74.9103 311° West 382 440 20,000 1,613 Climbing New York Center
Mon 07:20:51 AM 41.4972 -75.0253 308° West 390 449 21,500 1,513 Climbing New York Center
Mon 07:21:52 AM 41.5661 -75.1406 309° West 390 449 23,000 1,240 Climbing New York Center
Mon 07:22:52 AM 41.6089 -75.2739 293° West 390 449 24,000 545 Climbing New York Center
Mon 07:23:53 AM 41.6475 -75.4097 291° West 390 449 24,100  Climbing New York Center
Mon 07:24:53 AM 41.6878 -75.5486 291° West 395 455 24,000 -51 Descending New York Center
Mon 07:25:51 AM 41.7278 -75.6903 291° West 400 460 24,000  Level New York Center
Mon 07:26:53 AM 41.7678 -75.8294 291° West 400 460 24,000  Level New York Center
Mon 07:27:53 AM 41.8056 -75.9689 290° West 400 460 24,000  Level New York Center
Mon 07:28:53 AM 41.8447 -76.1139 290° West 405 466 24,000  Level New York Center
Mon 07:29:51 AM 41.8842 -76.2564 290° West 405 466 24,000  Level New York Center
Mon 07:30:52 AM 41.9164 -76.3706 291° West 410 472 24,000  Level New York Center
Mon 07:31:52 AM 41.9589 -76.5275 290° West 410 472 24,000  Level New York Center
Mon 07:32:52 AM 41.9975 -76.6703 290° West 415 478 24,000  Level New York Center
Mon 07:33:53 AM 42.0361 -76.8161 290° West 415 478 24,000  Level New York Center
Mon 07:34:48 AM 42.0758 -76.9547 291° West 415 478 24,000  Level Cleveland Center
Mon 07:35:48 AM 42.1200 -77.1006 292° West 433 498 24,000  Level Cleveland Center
Mon 07:36:48 AM 42.1658 -77.2436 293° West 433 498 24,000 -550 Level Cleveland Center
Mon 07:37:48 AM 42.2117 -77.3844 294° West 423 487 22,900 -1,450 Descending Cleveland Center
Mon 07:38:48 AM 42.2592 -77.5250 295° West 418 481 21,100 -1,800 Descending Cleveland Center
Mon 07:39:48 AM 42.3022 -77.6633 293° West 407 468 19,300 -1,750 Descending Cleveland Center
Mon 07:40:48 AM 42.3497 -77.8100 294° West 402 463 17,600 -1,650 Descending Cleveland Center
Mon 07:41:48 AM 42.3925 -77.9375 294° West 394 453 16,000 -1,600 Descending Cleveland Center
Mon 07:42:48 AM 42.4328 -78.0653 293° West 381 438 14,400 -1,600 Descending Cleveland Center
Mon 07:43:48 AM 42.4708 -78.1878 293° West 370 426 12,800 -1,600 Descending Cleveland Center
Mon 07:44:48 AM 42.5169 -78.2986 299° West 360 414 11,200 -1,600 Descending Cleveland Center
Mon 07:45:48 AM 42.5931 -78.3608 329° Northwest 317 365 9,600 -1,250 Descending Cleveland Center
Mon 07:46:48 AM 42.6608 -78.4092 332° Northwest 300 345 8,700 -950 Descending Cleveland Center
Mon 07:47:48 AM 42.7297 -78.4267 349° North 278 320 7,700 -950 Descending Cleveland Center
Mon 07:48:48 AM 42.8067 -78.4183 North 273 314 6,800 -850 Descending Cleveland Center
Mon 07:49:48 AM 42.8858 -78.4100 North 262 302 6,000 -670 Descending Cleveland Center
Mon 07:52:05 AM 43.0333 -78.4000 North 216 249 4,600 -883 Descending Buffalo TRACON
Mon 07:53:05 AM 43.0833 -78.4333 334° Northwest 200 230 3,100 -1,105 Descending Buffalo TRACON
Mon 07:53:59 AM 43.0833 -78.5000 270° West 173 199 2,500 -316 Descending Buffalo TRACON
Mon 07:54:59 AM 43.0667 -78.5500 245° Southwest 157 181 2,500  Level Buffalo TRACON
Mon 07:56:00 AM 43.0333 -78.6000 228° Southwest 167 192 2,500 -198 Level Buffalo TRACON
Mon 07:57:00 AM 43.0000 -78.6500 228° Southwest 165 190 2,100 -550 Descending Buffalo TRACON
Mon 07:58:00 AM 42.9667 -78.6833 216° Southwest 130 150 1,400 -700 Descending Buffalo TRACON
Mon 07:59:00 AM 42.9500 -78.7167 236° Southwest 114 131 700 -700 Descending Buffalo TRACON

Login

Don't have an account? Register now (free) for customized features, flight alerts, and more!